createdAt,value
2018-07-16T00:00:40.362Z,101449.20
2018-07-16T00:03:09.257Z,101443.61
2018-07-16T00:05:38.194Z,101438.51
2018-07-16T00:08:07.112Z,101442.25
2018-07-16T00:10:36.024Z,101437.73
2018-07-16T00:13:04.938Z,101434.06
2018-07-16T00:15:33.971Z,101441.66
2018-07-16T00:18:02.964Z,101435.89
2018-07-16T00:20:31.867Z,101432.47
2018-07-16T00:23:00.754Z,101430.93
2018-07-16T00:25:29.740Z,101436.14
2018-07-16T00:27:58.632Z,101434.34
2018-07-16T00:30:27.548Z,101430.91
2018-07-16T00:32:56.446Z,101432.39
2018-07-16T00:35:25.433Z,101427.45
2018-07-16T00:37:54.420Z,101420.59
2018-07-16T00:40:23.376Z,101417.70
2018-07-16T00:42:52.293Z,101420.20
2018-07-16T00:45:21.961Z,101414.84
2018-07-16T00:47:51.644Z,101416.59
2018-07-16T00:50:20.558Z,101414.16
2018-07-16T00:52:49.539Z,101415.43
2018-07-16T00:55:18.487Z,101417.88
2018-07-16T00:57:47.476Z,101416.59
2018-07-16T01:00:16.870Z,101413.19
2018-07-16T01:02:45.828Z,101415.14
2018-07-16T01:05:14.760Z,101416.84
2018-07-16T01:07:43.658Z,101419.05
2018-07-16T01:10:12.590Z,101416.59
2018-07-16T01:12:41.536Z,101412.24
2018-07-16T01:15:10.862Z,101409.09
2018-07-16T01:17:39.822Z,101414.50
2018-07-16T01:20:08.758Z,101411.34
2018-07-16T01:22:37.661Z,101407.34
2018-07-16T01:25:06.812Z,101405.26
2018-07-16T01:27:35.790Z,101408.58
2018-07-16T01:30:04.980Z,101412.84
2018-07-16T01:32:33.994Z,101412.84
2018-07-16T01:35:03.023Z,101411.22
2018-07-16T01:37:31.984Z,101410.75
2018-07-16T01:40:00.960Z,101408.40
2018-07-16T01:42:29.924Z,101408.53
2018-07-16T01:44:58.819Z,101406.02
2018-07-16T01:47:27.869Z,101401.27
2018-07-16T01:49:56.774Z,101398.50
2018-07-16T01:52:25.735Z,101401.42
2018-07-16T01:54:54.715Z,101397.51
2018-07-16T01:57:23.635Z,101400.02
2018-07-16T01:59:52.545Z,101402.16
2018-07-16T02:02:21.454Z,101402.79
2018-07-16T02:04:50.352Z,101401.73
2018-07-16T02:07:19.295Z,101396.14
2018-07-16T02:09:48.272Z,101393.85
2018-07-16T02:12:17.216Z,101402.03
2018-07-16T02:14:46.134Z,101390.95
2018-07-16T02:17:15.063Z,101392.27
2018-07-16T02:19:44.261Z,101391.59
2018-07-16T02:22:13.260Z,101391.88
2018-07-16T02:24:42.172Z,101395.34
2018-07-16T02:27:11.122Z,101390.70
2018-07-16T02:29:40.174Z,101394.53
2018-07-16T02:32:09.126Z,101387.08
2018-07-16T02:34:38.096Z,101388.31
2018-07-16T02:37:07.089Z,101384.91
2018-07-16T02:39:36.000Z,101384.78
2018-07-16T02:42:04.933Z,101388.05
2018-07-16T02:44:33.881Z,101389.17
2018-07-16T02:47:02.784Z,101384.60
2018-07-16T02:49:31.687Z,101384.61
2018-07-16T02:52:00.596Z,101379.80
2018-07-16T02:54:29.569Z,101380.18
2018-07-16T02:56:58.454Z,101384.56
2018-07-16T02:59:27.357Z,101385.32
2018-07-16T03:01:56.251Z,101383.25
2018-07-16T03:04:25.214Z,101386.20
2018-07-16T03:06:54.191Z,101391.44
2018-07-16T03:09:23.184Z,101382.97
2018-07-16T03:11:52.206Z,101382.13
2018-07-16T03:14:21.305Z,101381.87
2018-07-16T03:16:50.205Z,101392.41
2018-07-16T03:19:19.123Z,101382.16
2018-07-16T03:21:48.066Z,101383.70
2018-07-16T03:24:17.005Z,101385.64
2018-07-16T03:26:45.913Z,101381.65
2018-07-16T03:29:14.944Z,101383.42
2018-07-16T03:31:43.868Z,101382.88
2018-07-16T03:34:12.914Z,101381.55
2018-07-16T03:36:41.937Z,101383.23
2018-07-16T03:39:11.231Z,101386.91
2018-07-16T03:41:40.216Z,101386.16
2018-07-16T03:44:09.150Z,101380.78
2018-07-16T03:46:38.108Z,101385.66
2018-07-16T03:49:07.023Z,101385.55
2018-07-16T03:51:35.900Z,101383.69
2018-07-16T03:54:04.876Z,101391.70
2018-07-16T03:56:33.786Z,101391.09
2018-07-16T03:59:02.688Z,101386.91
2018-07-16T04:01:31.748Z,101386.30
2018-07-16T04:04:00.605Z,101387.89
2018-07-16T04:06:29.660Z,101381.73
2018-07-16T04:08:58.608Z,101393.97
2018-07-16T04:11:27.577Z,101388.83
2018-07-16T04:13:56.483Z,101387.55
2018-07-16T04:16:25.376Z,101387.41
2018-07-16T04:18:54.320Z,101396.22
2018-07-16T04:21:23.332Z,101389.42
2018-07-16T04:23:52.250Z,101392.89
2018-07-16T04:26:21.270Z,101393.10
2018-07-16T04:28:50.160Z,101390.66
2018-07-16T04:31:19.673Z,101388.17
2018-07-16T04:33:48.631Z,101380.62
2018-07-16T04:36:17.714Z,101370.74
2018-07-16T04:38:46.645Z,101385.94
2018-07-16T04:41:15.586Z,101389.06
2018-07-16T04:43:44.544Z,101393.27
2018-07-16T04:46:13.521Z,101398.55
2018-07-16T04:48:42.451Z,101402.06
2018-07-16T04:51:11.371Z,101389.41
2018-07-16T04:53:40.296Z,101380.86
2018-07-16T04:56:09.200Z,101383.47
2018-07-16T04:58:38.196Z,101382.97
2018-07-16T05:01:07.752Z,101382.52
2018-07-16T05:03:36.665Z,101377.48
2018-07-16T05:06:05.591Z,101381.20
2018-07-16T05:08:34.796Z,101382.69
2018-07-16T05:11:03.737Z,101385.38
2018-07-16T05:13:38.164Z,101388.42
2018-07-16T05:16:07.816Z,101389.53
2018-07-16T05:18:36.728Z,101390.48
2018-07-16T05:21:05.667Z,101387.50
2018-07-16T05:23:34.760Z,101381.61
2018-07-16T05:26:03.665Z,101382.05
2018-07-16T05:28:32.666Z,101381.27
2018-07-16T05:31:01.607Z,101384.69
2018-07-16T05:33:30.484Z,101381.84
2018-07-16T05:35:59.449Z,101382.56
2018-07-16T05:38:28.342Z,101378.45
2018-07-16T05:40:57.324Z,101381.71
2018-07-16T05:43:26.316Z,101385.55
2018-07-16T05:45:55.297Z,101390.73
2018-07-16T05:48:24.452Z,101388.89
2018-07-16T05:50:53.408Z,101386.62
2018-07-16T05:53:22.298Z,101380.51
2018-07-16T05:55:51.533Z,101381.96
2018-07-16T05:58:20.188Z,101374.80
2018-07-16T06:00:49.119Z,101378.44
2018-07-16T06:03:18.153Z,101379.41
2018-07-16T06:05:47.130Z,101383.50
2018-07-16T06:08:16.011Z,101381.50
2018-07-16T06:10:44.978Z,101378.09
2018-07-16T06:13:13.917Z,101381.97
2018-07-16T06:15:42.937Z,101379.37
2018-07-16T06:18:11.924Z,101387.88
2018-07-16T06:20:40.985Z,101384.39
2018-07-16T06:23:09.933Z,101386.50
2018-07-16T06:25:38.939Z,101388.89
2018-07-16T06:28:07.984Z,101388.02
2018-07-16T06:30:36.873Z,101390.61
2018-07-16T06:33:05.852Z,101388.60
2018-07-16T06:35:34.755Z,101385.42
2018-07-16T06:38:04.059Z,101381.55
2018-07-16T06:40:33.141Z,101382.45
2018-07-16T06:43:01.906Z,101384.27
2018-07-16T06:45:30.813Z,101384.89
2018-07-16T06:47:59.754Z,101382.77
2018-07-16T06:50:28.692Z,101378.84
2018-07-16T06:52:57.759Z,101386.52
2018-07-16T06:55:26.812Z,101382.45
2018-07-16T06:57:55.741Z,101383.03
2018-07-16T07:00:24.709Z,101389.72
2018-07-16T07:02:53.665Z,101381.23
2018-07-16T07:05:22.633Z,101385.27
2018-07-16T07:07:51.667Z,101386.80
2018-07-16T07:10:20.645Z,101384.62
2018-07-16T07:12:49.663Z,101387.45
2018-07-16T07:15:18.738Z,101381.06
2018-07-16T07:17:47.628Z,101379.11
2018-07-16T07:20:16.834Z,101382.54
2018-07-16T07:22:45.805Z,101387.13
2018-07-16T07:25:14.850Z,101389.41
2018-07-16T07:27:43.850Z,101385.86
2018-07-16T07:30:12.843Z,101388.72
2018-07-16T07:32:41.813Z,101380.00
2018-07-16T07:35:10.830Z,101382.70
2018-07-16T07:37:39.765Z,101382.01
2018-07-16T07:40:08.752Z,101376.73
2018-07-16T07:42:37.749Z,101377.99
2018-07-16T07:45:06.802Z,101372.73
2018-07-16T07:47:35.847Z,101369.98
2018-07-16T07:50:04.901Z,101367.92
2018-07-16T07:52:33.831Z,101366.38
2018-07-16T07:55:04.367Z,101362.78
2018-07-16T07:57:33.026Z,101359.72
2018-07-16T08:00:03.018Z,101367.65
2018-07-16T08:02:32.002Z,101359.36
2018-07-16T08:05:00.959Z,101358.45
2018-07-16T08:07:29.928Z,101357.97
2018-07-16T08:09:58.886Z,101360.66
2018-07-16T08:12:27.884Z,101357.62
2018-07-16T08:14:56.862Z,101351.44
2018-07-16T08:17:25.846Z,101354.39
2018-07-16T08:19:54.830Z,101359.37
2018-07-16T08:22:23.840Z,101360.03
2018-07-16T08:24:52.754Z,101349.68
2018-07-16T08:27:21.848Z,101357.03
2018-07-16T08:29:50.773Z,101352.42
2018-07-16T08:32:19.882Z,101347.31
2018-07-16T08:34:48.876Z,101348.86
2018-07-16T08:37:17.843Z,101353.11
2018-07-16T08:39:47.031Z,101351.08
2018-07-16T08:42:15.986Z,101351.55
2018-07-16T08:44:44.975Z,101346.83
2018-07-16T08:47:13.972Z,101351.44
2018-07-16T08:49:43.202Z,101356.28
2018-07-16T08:52:12.328Z,101360.55
2018-07-16T08:54:43.697Z,101354.05
2018-07-16T08:57:12.677Z,101363.21
2018-07-16T08:59:41.612Z,101359.66
2018-07-16T09:02:10.573Z,101355.23
2018-07-16T09:04:39.588Z,101349.91
2018-07-16T09:07:08.866Z,101346.31
2018-07-16T09:09:43.424Z,101349.58
2018-07-16T09:12:12.391Z,101342.52
2018-07-16T09:14:41.384Z,101347.16
2018-07-16T09:17:10.607Z,101346.81
2018-07-16T09:19:39.523Z,101347.17
2018-07-16T09:22:08.553Z,101344.26
2018-07-16T09:24:37.650Z,101339.27
2018-07-16T09:27:06.620Z,101342.70
2018-07-16T09:29:35.539Z,101346.47
2018-07-16T09:32:07.403Z,101344.42
2018-07-16T09:34:36.430Z,101331.55
2018-07-16T09:37:12.036Z,101333.41
2018-07-16T09:39:40.997Z,101333.23
2018-07-16T09:42:10.000Z,101337.89
2018-07-16T09:44:39.120Z,101337.55
2018-07-16T09:47:08.002Z,101337.22
2018-07-16T09:49:42.316Z,101335.81
2018-07-16T09:52:11.357Z,101333.23
2018-07-16T09:54:40.407Z,101332.22
2018-07-16T09:57:09.416Z,101326.20
2018-07-16T09:59:38.457Z,101322.42
2018-07-16T10:02:12.618Z,101327.58
2018-07-16T10:04:41.524Z,101328.61
2018-07-16T10:07:10.605Z,101330.30
2018-07-16T10:09:39.509Z,101328.95
2018-07-16T10:12:08.912Z,101327.22
2018-07-16T10:14:38.201Z,101322.76
2018-07-16T10:17:07.789Z,101330.00
2018-07-16T10:19:36.770Z,101319.83
2018-07-16T10:22:05.756Z,101324.84
2018-07-16T10:24:34.683Z,101324.45
2018-07-16T10:27:08.986Z,101315.40
2018-07-16T10:29:37.884Z,101326.30
2018-07-16T10:32:07.219Z,101323.61
2018-07-16T10:34:36.198Z,101323.44
2018-07-16T10:37:05.244Z,101324.66
2018-07-16T10:39:34.178Z,101323.66
2018-07-16T10:42:03.199Z,101327.52
2018-07-16T10:44:32.280Z,101325.14
2018-07-16T10:47:01.257Z,101320.78
2018-07-16T10:49:30.300Z,101317.95
2018-07-16T10:51:59.272Z,101322.36
2018-07-16T10:54:28.212Z,101317.39
2018-07-16T10:56:57.140Z,101314.45
2018-07-16T10:59:26.058Z,101317.98
2018-07-16T11:01:55.142Z,101320.38
2018-07-16T11:04:24.024Z,101309.02
2018-07-16T11:06:53.044Z,101323.38
2018-07-16T11:09:22.128Z,101313.26
2018-07-16T11:11:51.038Z,101315.19
2018-07-16T11:14:20.056Z,101310.04
2018-07-16T11:16:48.949Z,101308.80
2018-07-16T11:19:17.906Z,101304.49
2018-07-16T11:21:46.878Z,101314.66
2018-07-16T11:24:16.182Z,101314.55
2018-07-16T11:26:45.205Z,101308.32
2018-07-16T11:29:14.107Z,101312.52
2018-07-16T11:31:43.187Z,101309.99
2018-07-16T11:34:12.096Z,101300.09
2018-07-16T11:36:41.132Z,101294.50
2018-07-16T11:39:10.070Z,101297.25
2018-07-16T11:41:39.212Z,101297.73
2018-07-16T11:44:08.852Z,101297.69
2018-07-16T11:46:37.910Z,101293.71
2018-07-16T11:49:06.841Z,101296.11
2018-07-16T11:51:35.787Z,101294.89
2018-07-16T11:54:04.718Z,101288.51
2018-07-16T11:56:33.647Z,101293.13
2018-07-16T11:59:02.707Z,101293.63
2018-07-16T12:01:31.548Z,101286.48
2018-07-16T12:04:00.456Z,101286.12
2018-07-16T12:06:29.351Z,101289.83
2018-07-16T12:08:58.232Z,101286.48
2018-07-16T12:11:27.157Z,101279.84
2018-07-16T12:13:56.498Z,101275.52
2018-07-16T12:16:25.841Z,101273.47
2018-07-16T12:18:54.980Z,101263.77
2018-07-16T12:21:25.370Z,101266.00
2018-07-16T12:23:54.510Z,101269.56
2018-07-16T12:26:23.803Z,101263.60
2018-07-16T12:28:53.054Z,101253.41
2018-07-16T12:31:22.344Z,101252.94
2018-07-16T12:33:51.610Z,101257.48
2018-07-16T12:36:21.848Z,101256.84
2018-07-16T12:38:51.096Z,101258.20
2018-07-16T12:41:20.399Z,101239.59
2018-07-16T12:43:49.680Z,101249.02
2018-07-16T12:46:20.132Z,101237.14
2018-07-16T12:48:49.395Z,101240.64
2018-07-16T12:51:18.752Z,101241.57
2018-07-16T12:53:47.694Z,101238.19
2018-07-16T12:56:16.582Z,101234.37
2018-07-16T12:58:45.502Z,101235.86
2018-07-16T13:01:14.482Z,101233.67
2018-07-16T13:03:43.696Z,101233.20
2018-07-16T13:06:12.753Z,101228.23
2018-07-16T13:08:41.587Z,101222.92
2018-07-16T13:11:10.492Z,101227.02
2018-07-16T13:13:39.467Z,101224.97
2018-07-16T13:16:08.490Z,101220.56
2018-07-16T13:18:37.431Z,101216.48
2018-07-16T13:21:09.918Z,101207.11
2018-07-16T13:23:38.870Z,101216.29
2018-07-16T13:26:07.768Z,101212.06
2018-07-16T13:28:36.682Z,101215.66
2018-07-16T13:31:05.597Z,101212.77
2018-07-16T13:33:34.554Z,101213.67
2018-07-16T13:36:03.520Z,101209.97
2018-07-16T13:38:32.464Z,101206.83
2018-07-16T13:41:01.407Z,101205.77
2018-07-16T13:43:30.436Z,101200.36
2018-07-16T13:45:59.478Z,101195.78
2018-07-16T13:48:28.406Z,101197.78
2018-07-16T13:50:57.448Z,101203.41
2018-07-16T13:53:26.354Z,101197.23
2018-07-16T13:55:55.257Z,101197.91
2018-07-16T13:58:24.216Z,101198.96
2018-07-16T14:00:53.186Z,101198.44
2018-07-16T14:03:22.177Z,101198.30
2018-07-16T14:05:51.158Z,101199.98
2018-07-16T14:08:20.084Z,101198.64
2018-07-16T14:10:49.093Z,101198.30
2018-07-16T14:13:18.058Z,101197.94
2018-07-16T14:15:47.040Z,101193.77
2018-07-16T14:18:15.944Z,101199.63
2018-07-16T14:20:44.919Z,101193.37
2018-07-16T14:23:13.928Z,101197.16
2018-07-16T14:25:42.797Z,101195.23
2018-07-16T14:28:11.726Z,101192.66
2018-07-16T14:30:41.355Z,101184.71
2018-07-16T14:33:10.303Z,101185.73
2018-07-16T14:35:39.253Z,101178.45
2018-07-16T14:38:08.214Z,101184.14
2018-07-16T14:40:37.147Z,101181.70
2018-07-16T14:43:06.068Z,101172.90
2018-07-16T14:45:35.215Z,101177.34
2018-07-16T14:48:04.179Z,101173.39
2018-07-16T14:50:33.295Z,101174.77
2018-07-16T14:53:08.723Z,101171.12
2018-07-16T14:55:37.630Z,101177.13
2018-07-16T14:58:06.601Z,101165.34
2018-07-16T15:00:35.521Z,101164.06
2018-07-16T15:03:04.484Z,101166.50
2018-07-16T15:05:33.417Z,101160.69
2018-07-16T15:08:02.447Z,101161.70
2018-07-16T15:10:31.341Z,101161.35
2018-07-16T15:13:00.252Z,101158.55
2018-07-16T15:15:34.655Z,101156.16
2018-07-16T15:18:03.557Z,101151.36
2018-07-16T15:20:32.661Z,101153.44
2018-07-16T15:23:01.457Z,101151.89
2018-07-16T15:25:30.605Z,101153.31
2018-07-16T15:27:59.493Z,101156.02
2018-07-16T15:30:28.447Z,101149.00
2018-07-16T15:32:57.347Z,101151.31
2018-07-16T15:35:26.257Z,101151.27
2018-07-16T15:37:55.447Z,101150.60
2018-07-16T15:40:24.347Z,101149.22
2018-07-16T15:42:53.312Z,101142.16
2018-07-16T15:45:22.380Z,101146.52
2018-07-16T15:47:51.979Z,101142.74
2018-07-16T15:50:20.912Z,101148.43
2018-07-16T15:52:49.892Z,101147.36
2018-07-16T15:55:18.792Z,101149.94
2018-07-16T15:57:47.698Z,101144.08
2018-07-16T16:00:16.810Z,101144.02
2018-07-16T16:02:45.684Z,101138.23
2018-07-16T16:05:14.560Z,101134.10
2018-07-16T16:07:43.448Z,101138.15
2018-07-16T16:10:12.401Z,101130.06
2018-07-16T16:12:41.306Z,101126.86
2018-07-16T16:15:10.863Z,101131.53
2018-07-16T16:17:39.895Z,101133.21
2018-07-16T16:20:08.792Z,101129.89
2018-07-16T16:22:37.774Z,101123.32
2018-07-16T16:25:06.693Z,101127.37
2018-07-16T16:27:35.757Z,101117.03
2018-07-16T16:30:05.599Z,101131.09
2018-07-16T16:32:34.567Z,101118.92
2018-07-16T16:35:03.626Z,101112.16
2018-07-16T16:37:32.690Z,101116.96
2018-07-16T16:40:01.549Z,101112.59
2018-07-16T16:42:30.592Z,101106.11
2018-07-16T16:44:59.678Z,101098.82
2018-07-16T16:47:28.760Z,101100.78
2018-07-16T16:49:57.647Z,101098.73
2018-07-16T16:52:26.543Z,101108.89
2018-07-16T16:54:55.540Z,101106.53
2018-07-16T16:57:24.474Z,101107.80
2018-07-16T16:59:53.396Z,101107.48
2018-07-16T17:02:22.418Z,101105.52
2018-07-16T17:04:51.409Z,101104.07
2018-07-16T17:07:20.408Z,101105.95
2018-07-16T17:09:49.413Z,101104.07
2018-07-16T17:12:18.592Z,101103.19
2018-07-16T17:14:47.525Z,101108.75
2018-07-16T17:17:16.438Z,101109.54
2018-07-16T17:19:45.426Z,101118.52
2018-07-16T17:22:14.422Z,101117.36
2018-07-16T17:24:43.414Z,101116.23
2018-07-16T17:27:19.037Z,101111.86
2018-07-16T17:29:47.952Z,101115.52
2018-07-16T17:32:16.907Z,101119.42
2018-07-16T17:34:45.854Z,101127.03
2018-07-16T17:37:14.780Z,101126.07
2018-07-16T17:39:43.715Z,101129.48
2018-07-16T17:42:12.665Z,101132.41
2018-07-16T17:44:41.607Z,101122.55
2018-07-16T17:47:10.621Z,101134.79
2018-07-16T17:49:39.627Z,101139.17
2018-07-16T17:52:08.541Z,101132.89
2018-07-16T17:54:37.414Z,101130.16
2018-07-16T17:57:06.716Z,101134.59
2018-07-16T17:59:35.805Z,101131.70
2018-07-16T18:02:04.769Z,101133.58
2018-07-16T18:04:33.763Z,101140.46
2018-07-16T18:07:02.691Z,101140.91
2018-07-16T18:09:31.621Z,101147.75
2018-07-16T18:12:00.508Z,101144.78
2018-07-16T18:14:29.439Z,101142.37
2018-07-16T18:16:58.367Z,101138.80
2018-07-16T18:19:27.369Z,101148.69
2018-07-16T18:21:56.341Z,101148.34
2018-07-16T18:24:25.285Z,101148.02
2018-07-16T18:26:54.257Z,101159.08
2018-07-16T18:29:23.205Z,101151.17
2018-07-16T18:31:52.203Z,101152.41
2018-07-16T18:34:21.313Z,101153.58
2018-07-16T18:36:50.300Z,101154.00
2018-07-16T18:39:19.266Z,101148.81
2018-07-16T18:41:48.337Z,101154.50
2018-07-16T18:44:18.099Z,101153.92
2018-07-16T18:46:47.003Z,101154.57
2018-07-16T18:49:15.941Z,101158.66
2018-07-16T18:51:44.872Z,101162.30
2018-07-16T18:54:13.797Z,101156.63
2018-07-16T18:56:42.829Z,101155.06
2018-07-16T18:59:11.775Z,101152.98
2018-07-16T19:01:41.041Z,101148.72
2018-07-16T19:04:09.985Z,101158.53
2018-07-16T19:06:40.614Z,101154.29
2018-07-16T19:09:10.028Z,101156.83
2018-07-16T19:11:39.510Z,101161.70
2018-07-16T19:14:08.919Z,101156.86
2018-07-16T19:16:38.068Z,101163.01
2018-07-16T19:19:07.357Z,101168.89
2018-07-16T19:21:36.415Z,101166.99
2018-07-16T19:24:05.367Z,101170.19
2018-07-16T19:26:34.300Z,101172.12
2018-07-16T19:29:03.303Z,101174.36
2018-07-16T19:31:32.241Z,101176.64
2018-07-16T19:34:01.273Z,101184.91
2018-07-16T19:36:30.311Z,101196.94
2018-07-16T19:38:59.360Z,101221.39
2018-07-16T19:41:28.216Z,101211.61
2018-07-16T19:43:57.288Z,101228.25
2018-07-16T19:46:26.278Z,101235.66
2018-07-16T19:48:55.396Z,101246.00
2018-07-16T19:51:24.304Z,101255.31
2018-07-16T19:53:53.220Z,101249.00
2018-07-16T19:56:22.212Z,101258.19
2018-07-16T19:58:51.316Z,101255.38
2018-07-16T20:01:20.404Z,101264.51
2018-07-16T20:03:49.409Z,101282.95
2018-07-16T20:06:18.321Z,101280.34
2018-07-16T20:08:47.214Z,101281.64
2018-07-16T20:11:16.202Z,101295.94
2018-07-16T20:13:45.136Z,101293.00
2018-07-16T20:16:14.037Z,101294.27
2018-07-16T20:18:42.941Z,101294.23
2018-07-16T20:21:11.853Z,101290.23
2018-07-16T20:23:40.772Z,101292.53
2018-07-16T20:26:13.463Z,101301.30
2018-07-16T20:28:42.410Z,101308.14
2018-07-16T20:31:11.352Z,101313.55
2018-07-16T20:33:40.534Z,101312.23
2018-07-16T20:36:09.447Z,101314.11
2018-07-16T20:38:38.347Z,101323.52
2018-07-16T20:41:07.312Z,101321.64
2018-07-16T20:43:36.308Z,101321.05
2018-07-16T20:46:05.602Z,101323.22
2018-07-16T20:48:34.604Z,101328.52
2018-07-16T20:51:03.589Z,101326.75
2018-07-16T20:53:32.543Z,101322.61
2018-07-16T20:56:01.480Z,101322.18
2018-07-16T20:58:30.394Z,101318.13
2018-07-16T21:00:59.386Z,101318.09
2018-07-16T21:03:28.906Z,101317.00
2018-07-16T21:05:57.910Z,101315.35
2018-07-16T21:08:26.858Z,101318.92
2018-07-16T21:10:55.875Z,101323.95
2018-07-16T21:13:24.783Z,101323.41
2018-07-16T21:15:53.728Z,101320.48
2018-07-16T21:18:22.730Z,101328.30
2018-07-16T21:20:51.776Z,101335.60
2018-07-16T21:23:20.708Z,101337.59
2018-07-16T21:25:49.622Z,101341.36
2018-07-16T21:28:18.630Z,101337.73
2018-07-16T21:30:47.545Z,101338.36
2018-07-16T21:33:16.495Z,101352.71
2018-07-16T21:35:45.516Z,101362.63
2018-07-16T21:38:14.396Z,101371.83
2018-07-16T21:40:43.353Z,101364.17
2018-07-16T21:43:12.198Z,101364.15
2018-07-16T21:45:41.142Z,101351.07
2018-07-16T21:48:10.036Z,101352.37
2018-07-16T21:50:38.959Z,101346.95
2018-07-16T21:53:07.880Z,101339.00
2018-07-16T21:55:36.820Z,101331.61
2018-07-16T21:58:05.812Z,101331.39
2018-07-16T22:00:34.938Z,101326.84
2018-07-16T22:03:03.788Z,101323.12
2018-07-16T22:05:32.701Z,101314.20
2018-07-16T22:08:01.620Z,101312.03
2018-07-16T22:10:30.659Z,101310.95
2018-07-16T22:12:59.549Z,101303.46
2018-07-16T22:15:29.510Z,101300.64
2018-07-16T22:17:59.193Z,101299.36
2018-07-16T22:20:28.537Z,101289.02
2018-07-16T22:22:57.647Z,101288.63
2018-07-16T22:25:27.229Z,101287.69
2018-07-16T22:27:56.204Z,101285.47
2018-07-16T22:30:25.108Z,101288.34
2018-07-16T22:32:54.100Z,101292.69
2018-07-16T22:35:23.591Z,101294.86
2018-07-16T22:37:52.482Z,101285.00
2018-07-16T22:40:21.347Z,101289.49
2018-07-16T22:42:50.296Z,101283.77
2018-07-16T22:45:19.227Z,101279.81
2018-07-16T22:47:48.127Z,101279.76
2018-07-16T22:50:17.128Z,101273.03
2018-07-16T22:52:46.060Z,101275.72
2018-07-16T22:55:14.963Z,101269.92
2018-07-16T22:57:43.871Z,101268.60
2018-07-16T23:00:12.875Z,101266.39
2018-07-16T23:02:41.802Z,101267.66
2018-07-16T23:05:10.780Z,101269.34
2018-07-16T23:07:39.771Z,101262.55
2018-07-16T23:10:08.768Z,101261.80
2018-07-16T23:12:37.668Z,101256.89
2018-07-16T23:15:06.756Z,101257.45
2018-07-16T23:17:35.668Z,101256.63
2018-07-16T23:20:04.680Z,101250.63
2018-07-16T23:22:43.600Z,101250.65
2018-07-16T23:25:12.524Z,101244.92
2018-07-16T23:27:41.416Z,101255.53
2018-07-16T23:30:10.312Z,101256.97
2018-07-16T23:32:39.320Z,101258.12
2018-07-16T23:35:08.230Z,101249.09
2018-07-16T23:37:37.213Z,101246.25
2018-07-16T23:40:06.250Z,101252.02
2018-07-16T23:42:35.401Z,101253.34
2018-07-16T23:45:04.951Z,101244.88
2018-07-16T23:47:33.899Z,101240.59
2018-07-16T23:50:02.902Z,101244.33
2018-07-16T23:52:31.942Z,101243.40
2018-07-16T23:55:00.978Z,101238.61
2018-07-16T23:57:30.209Z,101245.66
2018-07-16T23:59:59.200Z,101252.51
